sensor_id;sensor_type;location;lat;lon;timestamp;P1;durP1;ratioP1;P2;durP2;ratioP2
11653;SDS011;5883;48.818;9.114;2022-12-13T00:02:24;29.50;;;15.83;;
11653;SDS011;5883;48.818;9.114;2022-12-13T00:04:50;35.20;;;16.93;;
11653;SDS011;5883;48.818;9.114;2022-12-13T00:07:17;25.87;;;14.47;;
11653;SDS011;5883;48.818;9.114;2022-12-13T00:09:43;25.07;;;13.53;;
11653;SDS011;5883;48.818;9.114;2022-12-13T00:12:10;23.90;;;13.53;;
11653;SDS011;5883;48.818;9.114;2022-12-13T00:14:36;25.40;;;14.47;;
11653;SDS011;5883;48.818;9.114;2022-12-13T00:17:04;24.03;;;13.70;;
11653;SDS011;5883;48.818;9.114;2022-12-13T00:19:31;22.93;;;13.87;;
11653;SDS011;5883;48.818;9.114;2022-12-13T00:21:57;25.13;;;13.67;;
11653;SDS011;5883;48.818;9.114;2022-12-13T00:24:23;21.90;;;13.10;;
11653;SDS011;5883;48.818;9.114;2022-12-13T00:26:52;26.17;;;13.40;;
11653;SDS011;5883;48.818;9.114;2022-12-13T00:29:19;24.00;;;14.07;;
11653;SDS011;5883;48.818;9.114;2022-12-13T00:31:45;24.53;;;13.60;;
11653;SDS011;5883;48.818;9.114;2022-12-13T00:34:13;21.33;;;13.87;;
11653;SDS011;5883;48.818;9.114;2022-12-13T00:36:40;21.87;;;14.20;;
11653;SDS011;5883;48.818;9.114;2022-12-13T00:39:06;23.00;;;12.87;;
11653;SDS011;5883;48.818;9.114;2022-12-13T00:41:33;22.53;;;13.70;;
11653;SDS011;5883;48.818;9.114;2022-12-13T00:44:00;24.30;;;14.00;;
11653;SDS011;5883;48.818;9.114;2022-12-13T00:46:27;25.27;;;13.23;;
11653;SDS011;5883;48.818;9.114;2022-12-13T00:48:54;23.47;;;13.73;;
11653;SDS011;5883;48.818;9.114;2022-12-13T00:51:22;24.03;;;13.33;;
11653;SDS011;5883;48.818;9.114;2022-12-13T00:53:49;25.53;;;14.43;;
11653;SDS011;5883;48.818;9.114;2022-12-13T00:56:16;21.90;;;13.90;;
11653;SDS011;5883;48.818;9.114;2022-12-13T00:58:45;22.37;;;12.73;;
11653;SDS011;5883;48.818;9.114;2022-12-13T01:01:12;26.20;;;14.17;;
11653;SDS011;5883;48.818;9.114;2022-12-13T01:03:39;23.53;;;13.33;;
11653;SDS011;5883;48.818;9.114;2022-12-13T01:06:10;25.23;;;14.63;;
11653;SDS011;5883;48.818;9.114;2022-12-13T01:08:38;24.73;;;14.03;;
11653;SDS011;5883;48.818;9.114;2022-12-13T01:11:05;29.63;;;14.13;;
11653;SDS011;5883;48.818;9.114;2022-12-13T01:13:31;27.53;;;14.20;;
11653;SDS011;5883;48.818;9.114;2022-12-13T01:16:00;28.07;;;14.20;;
11653;SDS011;5883;48.818;9.114;2022-12-13T01:18:26;26.70;;;13.40;;
11653;SDS011;5883;48.818;9.114;2022-12-13T01:20:57;24.77;;;13.93;;
11653;SDS011;5883;48.818;9.114;2022-12-13T01:23:23;26.13;;;13.80;;
11653;SDS011;5883;48.818;9.114;2022-12-13T01:25:51;23.43;;;13.77;;
11653;SDS011;5883;48.818;9.114;2022-12-13T01:28:18;27.00;;;13.47;;
11653;SDS011;5883;48.818;9.114;2022-12-13T01:30:51;23.20;;;13.60;;
11653;SDS011;5883;48.818;9.114;2022-12-13T01:33:18;24.87;;;12.70;;
11653;SDS011;5883;48.818;9.114;2022-12-13T01:35:44;22.67;;;12.47;;
11653;SDS011;5883;48.818;9.114;2022-12-13T01:38:11;25.00;;;13.80;;
11653;SDS011;5883;48.818;9.114;2022-12-13T01:40:41;23.07;;;12.77;;
11653;SDS011;5883;48.818;9.114;2022-12-13T01:43:09;23.87;;;13.27;;
11653;SDS011;5883;48.818;9.114;2022-12-13T01:45:36;24.83;;;12.53;;
11653;SDS011;5883;48.818;9.114;2022-12-13T01:48:03;24.97;;;13.53;;
11653;SDS011;5883;48.818;9.114;2022-12-13T01:50:31;26.67;;;12.10;;
11653;SDS011;5883;48.818;9.114;2022-12-13T01:52:59;24.33;;;12.87;;
11653;SDS011;5883;48.818;9.114;2022-12-13T01:55:26;20.87;;;11.97;;
11653;SDS011;5883;48.818;9.114;2022-12-13T01:57:53;22.47;;;13.23;;
11653;SDS011;5883;48.818;9.114;2022-12-13T02:00:21;24.40;;;12.37;;
11653;SDS011;5883;48.818;9.114;2022-12-13T02:02:49;24.87;;;12.50;;
11653;SDS011;5883;48.818;9.114;2022-12-13T02:05:17;23.30;;;12.80;;
11653;SDS011;5883;48.818;9.114;2022-12-13T02:07:46;23.60;;;12.90;;
11653;SDS011;5883;48.818;9.114;2022-12-13T02:10:13;25.60;;;13.20;;
11653;SDS011;5883;48.818;9.114;2022-12-13T02:12:40;21.93;;;12.73;;
11653;SDS011;5883;48.818;9.114;2022-12-13T02:15:07;25.97;;;13.17;;
11653;SDS011;5883;48.818;9.114;2022-12-13T02:17:40;22.47;;;12.97;;
11653;SDS011;5883;48.818;9.114;2022-12-13T02:20:17;24.43;;;12.97;;
11653;SDS011;5883;48.818;9.114;2022-12-13T02:22:58;23.83;;;12.93;;
11653;SDS011;5883;48.818;9.114;2022-12-13T02:25:37;21.60;;;12.37;;
11653;SDS011;5883;48.818;9.114;2022-12-13T02:28:16;26.57;;;12.77;;
11653;SDS011;5883;48.818;9.114;2022-12-13T02:30:50;26.87;;;13.33;;
11653;SDS011;5883;48.818;9.114;2022-12-13T02:33:23;24.53;;;12.10;;
11653;SDS011;5883;48.818;9.114;2022-12-13T02:35:51;21.83;;;12.17;;
11653;SDS011;5883;48.818;9.114;2022-12-13T02:38:22;21.40;;;11.80;;
11653;SDS011;5883;48.818;9.114;2022-12-13T02:40:50;25.07;;;12.87;;
11653;SDS011;5883;48.818;9.114;2022-12-13T02:43:20;21.77;;;12.20;;
11653;SDS011;5883;48.818;9.114;2022-12-13T02:45:48;22.40;;;12.03;;
11653;SDS011;5883;48.818;9.114;2022-12-13T02:48:18;23.90;;;11.97;;
11653;SDS011;5883;48.818;9.114;2022-12-13T02:50:48;24.57;;;13.00;;
11653;SDS011;5883;48.818;9.114;2022-12-13T02:53:16;27.40;;;13.10;;
11653;SDS011;5883;48.818;9.114;2022-12-13T02:55:43;23.43;;;11.87;;
11653;SDS011;5883;48.818;9.114;2022-12-13T02:58:11;21.50;;;12.43;;
11653;SDS011;5883;48.818;9.114;2022-12-13T03:00:39;23.63;;;12.13;;
11653;SDS011;5883;48.818;9.114;2022-12-13T03:03:14;26.17;;;14.43;;
11653;SDS011;5883;48.818;9.114;2022-12-13T03:05:47;23.63;;;12.47;;
11653;SDS011;5883;48.818;9.114;2022-12-13T03:08:38;24.77;;;13.33;;
11653;SDS011;5883;48.818;9.114;2022-12-13T03:11:08;24.93;;;13.57;;
11653;SDS011;5883;48.818;9.114;2022-12-13T03:13:38;24.67;;;13.17;;
11653;SDS011;5883;48.818;9.114;2022-12-13T03:16:08;25.63;;;13.63;;
11653;SDS011;5883;48.818;9.114;2022-12-13T03:18:36;23.27;;;13.20;;
11653;SDS011;5883;48.818;9.114;2022-12-13T03:21:05;23.23;;;12.43;;
11653;SDS011;5883;48.818;9.114;2022-12-13T03:23:33;25.47;;;13.97;;
11653;SDS011;5883;48.818;9.114;2022-12-13T03:26:00;24.10;;;13.97;;
11653;SDS011;5883;48.818;9.114;2022-12-13T03:28:28;24.07;;;13.30;;
11653;SDS011;5883;48.818;9.114;2022-12-13T03:30:54;22.73;;;13.67;;
11653;SDS011;5883;48.818;9.114;2022-12-13T03:33:20;26.57;;;13.40;;
11653;SDS011;5883;48.818;9.114;2022-12-13T03:35:47;27.27;;;13.10;;
11653;SDS011;5883;48.818;9.114;2022-12-13T03:38:15;23.27;;;13.60;;
11653;SDS011;5883;48.818;9.114;2022-12-13T03:40:42;25.43;;;13.33;;
11653;SDS011;5883;48.818;9.114;2022-12-13T03:43:08;26.70;;;13.90;;
11653;SDS011;5883;48.818;9.114;2022-12-13T03:45:35;25.27;;;13.70;;
11653;SDS011;5883;48.818;9.114;2022-12-13T03:48:02;24.17;;;13.77;;
11653;SDS011;5883;48.818;9.114;2022-12-13T03:50:28;27.87;;;13.70;;
11653;SDS011;5883;48.818;9.114;2022-12-13T03:52:57;30.00;;;13.47;;
11653;SDS011;5883;48.818;9.114;2022-12-13T03:55:25;22.20;;;12.83;;
11653;SDS011;5883;48.818;9.114;2022-12-13T03:57:51;24.90;;;13.20;;
11653;SDS011;5883;48.818;9.114;2022-12-13T04:00:17;25.60;;;12.90;;
11653;SDS011;5883;48.818;9.114;2022-12-13T04:02:44;26.07;;;12.87;;
11653;SDS011;5883;48.818;9.114;2022-12-13T04:05:10;22.63;;;12.43;;
11653;SDS011;5883;48.818;9.114;2022-12-13T04:07:36;22.60;;;12.80;;
11653;SDS011;5883;48.818;9.114;2022-12-13T04:10:03;25.43;;;13.00;;
11653;SDS011;5883;48.818;9.114;2022-12-13T04:12:31;22.70;;;13.10;;
11653;SDS011;5883;48.818;9.114;2022-12-13T04:15:15;23.73;;;13.30;;
11653;SDS011;5883;48.818;9.114;2022-12-13T04:17:41;24.33;;;13.33;;
11653;SDS011;5883;48.818;9.114;2022-12-13T04:20:08;25.20;;;14.50;;
11653;SDS011;5883;48.818;9.114;2022-12-13T04:22:35;26.97;;;13.97;;
11653;SDS011;5883;48.818;9.114;2022-12-13T04:25:02;25.00;;;13.70;;
11653;SDS011;5883;48.818;9.114;2022-12-13T04:27:28;29.27;;;15.07;;
11653;SDS011;5883;48.818;9.114;2022-12-13T04:29:56;26.67;;;14.97;;
11653;SDS011;5883;48.818;9.114;2022-12-13T04:32:22;31.63;;;14.63;;
11653;SDS011;5883;48.818;9.114;2022-12-13T04:34:49;24.83;;;12.67;;
11653;SDS011;5883;48.818;9.114;2022-12-13T04:37:15;27.47;;;14.63;;
11653;SDS011;5883;48.818;9.114;2022-12-13T04:39:42;26.23;;;13.67;;
11653;SDS011;5883;48.818;9.114;2022-12-13T04:42:08;28.27;;;14.30;;
11653;SDS011;5883;48.818;9.114;2022-12-13T04:44:35;24.23;;;13.70;;
11653;SDS011;5883;48.818;9.114;2022-12-13T04:47:03;26.93;;;13.40;;
11653;SDS011;5883;48.818;9.114;2022-12-13T04:49:29;23.40;;;13.20;;
11653;SDS011;5883;48.818;9.114;2022-12-13T04:51:56;25.47;;;13.50;;
11653;SDS011;5883;48.818;9.114;2022-12-13T04:54:22;22.90;;;13.20;;
11653;SDS011;5883;48.818;9.114;2022-12-13T04:56:49;25.97;;;13.23;;
11653;SDS011;5883;48.818;9.114;2022-12-13T04:59:15;25.17;;;13.60;;
11653;SDS011;5883;48.818;9.114;2022-12-13T05:01:42;26.27;;;13.47;;
11653;SDS011;5883;48.818;9.114;2022-12-13T05:04:10;23.63;;;13.23;;
11653;SDS011;5883;48.818;9.114;2022-12-13T05:06:37;23.60;;;13.03;;
11653;SDS011;5883;48.818;9.114;2022-12-13T05:09:04;22.67;;;12.37;;
11653;SDS011;5883;48.818;9.114;2022-12-13T05:11:32;24.53;;;13.10;;
11653;SDS011;5883;48.818;9.114;2022-12-13T05:13:58;26.80;;;13.57;;
11653;SDS011;5883;48.818;9.114;2022-12-13T05:16:24;22.50;;;12.70;;
11653;SDS011;5883;48.818;9.114;2022-12-13T05:18:51;28.17;;;13.43;;
11653;SDS011;5883;48.818;9.114;2022-12-13T05:21:19;25.60;;;13.57;;
11653;SDS011;5883;48.818;9.114;2022-12-13T05:23:45;26.20;;;13.77;;
11653;SDS011;5883;48.818;9.114;2022-12-13T05:26:11;25.57;;;13.27;;
11653;SDS011;5883;48.818;9.114;2022-12-13T05:28:38;24.60;;;13.63;;
11653;SDS011;5883;48.818;9.114;2022-12-13T05:31:05;27.67;;;12.50;;
11653;SDS011;5883;48.818;9.114;2022-12-13T05:33:32;23.70;;;12.37;;
11653;SDS011;5883;48.818;9.114;2022-12-13T05:35:59;26.10;;;13.67;;
11653;SDS011;5883;48.818;9.114;2022-12-13T05:38:26;20.13;;;12.57;;
11653;SDS011;5883;48.818;9.114;2022-12-13T05:40:53;20.77;;;12.97;;
11653;SDS011;5883;48.818;9.114;2022-12-13T05:43:20;23.27;;;12.73;;
11653;SDS011;5883;48.818;9.114;2022-12-13T05:45:48;23.57;;;11.97;;
11653;SDS011;5883;48.818;9.114;2022-12-13T05:48:14;23.30;;;12.50;;
11653;SDS011;5883;48.818;9.114;2022-12-13T05:50:41;23.80;;;12.90;;
11653;SDS011;5883;48.818;9.114;2022-12-13T05:53:08;26.00;;;13.40;;
11653;SDS011;5883;48.818;9.114;2022-12-13T05:55:37;24.50;;;13.67;;
11653;SDS011;5883;48.818;9.114;2022-12-13T05:58:03;24.90;;;13.23;;
11653;SDS011;5883;48.818;9.114;2022-12-13T06:00:32;25.97;;;14.07;;
11653;SDS011;5883;48.818;9.114;2022-12-13T06:02:59;24.67;;;12.57;;
11653;SDS011;5883;48.818;9.114;2022-12-13T06:05:25;21.50;;;13.23;;
11653;SDS011;5883;48.818;9.114;2022-12-13T06:07:52;26.53;;;12.73;;
11653;SDS011;5883;48.818;9.114;2022-12-13T06:10:19;23.17;;;13.37;;
11653;SDS011;5883;48.818;9.114;2022-12-13T06:12:48;21.80;;;11.97;;
11653;SDS011;5883;48.818;9.114;2022-12-13T06:15:15;24.07;;;12.10;;
11653;SDS011;5883;48.818;9.114;2022-12-13T06:17:41;22.07;;;13.37;;
11653;SDS011;5883;48.818;9.114;2022-12-13T06:20:08;25.20;;;12.80;;
11653;SDS011;5883;48.818;9.114;2022-12-13T06:22:35;25.87;;;13.13;;
11653;SDS011;5883;48.818;9.114;2022-12-13T06:25:01;23.30;;;12.83;;
11653;SDS011;5883;48.818;9.114;2022-12-13T06:27:28;24.03;;;13.20;;
11653;SDS011;5883;48.818;9.114;2022-12-13T06:29:55;26.03;;;12.70;;
11653;SDS011;5883;48.818;9.114;2022-12-13T06:32:22;23.37;;;12.47;;
11653;SDS011;5883;48.818;9.114;2022-12-13T06:34:48;26.73;;;13.53;;
11653;SDS011;5883;48.818;9.114;2022-12-13T06:37:15;24.33;;;12.13;;
11653;SDS011;5883;48.818;9.114;2022-12-13T06:39:41;24.70;;;11.97;;
11653;SDS011;5883;48.818;9.114;2022-12-13T06:42:12;25.03;;;12.57;;
11653;SDS011;5883;48.818;9.114;2022-12-13T06:44:40;25.37;;;11.93;;
11653;SDS011;5883;48.818;9.114;2022-12-13T06:47:07;26.20;;;12.77;;
11653;SDS011;5883;48.818;9.114;2022-12-13T06:49:34;23.23;;;12.73;;
11653;SDS011;5883;48.818;9.114;2022-12-13T06:52:00;27.13;;;13.33;;
11653;SDS011;5883;48.818;9.114;2022-12-13T06:54:27;29.27;;;13.70;;
11653;SDS011;5883;48.818;9.114;2022-12-13T06:56:53;28.30;;;15.27;;
11653;SDS011;5883;48.818;9.114;2022-12-13T06:59:20;38.37;;;19.43;;
11653;SDS011;5883;48.818;9.114;2022-12-13T07:01:46;41.47;;;19.70;;
11653;SDS011;5883;48.818;9.114;2022-12-13T07:04:14;40.43;;;16.27;;
11653;SDS011;5883;48.818;9.114;2022-12-13T07:06:40;30.03;;;16.00;;
11653;SDS011;5883;48.818;9.114;2022-12-13T07:09:07;32.23;;;14.63;;
11653;SDS011;5883;48.818;9.114;2022-12-13T07:11:33;33.37;;;16.10;;
11653;SDS011;5883;48.818;9.114;2022-12-13T07:14:00;26.27;;;13.73;;
11653;SDS011;5883;48.818;9.114;2022-12-13T07:16:26;27.87;;;14.47;;
11653;SDS011;5883;48.818;9.114;2022-12-13T07:18:53;29.40;;;13.50;;
11653;SDS011;5883;48.818;9.114;2022-12-13T07:21:21;22.57;;;14.07;;
11653;SDS011;5883;48.818;9.114;2022-12-13T07:23:47;33.50;;;18.95;;
11653;SDS011;5883;48.818;9.114;2022-12-13T07:26:14;23.87;;;15.47;;
11653;SDS011;5883;48.818;9.114;2022-12-13T07:28:40;26.50;;;14.40;;
11653;SDS011;5883;48.818;9.114;2022-12-13T07:31:07;25.00;;;13.33;;
11653;SDS011;5883;48.818;9.114;2022-12-13T07:33:34;23.37;;;13.53;;
11653;SDS011;5883;48.818;9.114;2022-12-13T07:36:01;27.57;;;13.80;;
11653;SDS011;5883;48.818;9.114;2022-12-13T07:38:29;21.47;;;12.80;;
11653;SDS011;5883;48.818;9.114;2022-12-13T07:40:55;23.57;;;13.73;;
11653;SDS011;5883;48.818;9.114;2022-12-13T07:43:22;26.53;;;13.13;;
11653;SDS011;5883;48.818;9.114;2022-12-13T07:45:49;27.63;;;14.10;;
11653;SDS011;5883;48.818;9.114;2022-12-13T07:48:15;23.73;;;13.53;;
11653;SDS011;5883;48.818;9.114;2022-12-13T07:50:42;26.97;;;14.27;;
11653;SDS011;5883;48.818;9.114;2022-12-13T07:53:08;23.40;;;14.13;;
11653;SDS011;5883;48.818;9.114;2022-12-13T07:55:37;24.20;;;13.43;;
11653;SDS011;5883;48.818;9.114;2022-12-13T07:58:04;25.13;;;14.03;;
11653;SDS011;5883;48.818;9.114;2022-12-13T08:00:31;26.50;;;14.20;;
11653;SDS011;5883;48.818;9.114;2022-12-13T08:02:57;27.00;;;13.63;;
11653;SDS011;5883;48.818;9.114;2022-12-13T08:05:25;29.90;;;14.10;;
11653;SDS011;5883;48.818;9.114;2022-12-13T08:07:51;26.67;;;14.57;;
11653;SDS011;5883;48.818;9.114;2022-12-13T08:10:18;29.40;;;15.10;;
11653;SDS011;5883;48.818;9.114;2022-12-13T08:12:46;32.63;;;14.77;;
11653;SDS011;5883;48.818;9.114;2022-12-13T08:15:14;24.03;;;13.70;;
11653;SDS011;5883;48.818;9.114;2022-12-13T08:17:40;26.47;;;13.90;;
11653;SDS011;5883;48.818;9.114;2022-12-13T08:20:07;28.20;;;14.53;;
11653;SDS011;5883;48.818;9.114;2022-12-13T08:22:34;21.67;;;13.43;;
11653;SDS011;5883;48.818;9.114;2022-12-13T08:25:00;25.37;;;15.00;;
11653;SDS011;5883;48.818;9.114;2022-12-13T08:27:27;23.63;;;14.60;;
11653;SDS011;5883;48.818;9.114;2022-12-13T08:29:55;25.07;;;15.03;;
11653;SDS011;5883;48.818;9.114;2022-12-13T08:32:22;29.13;;;15.20;;
11653;SDS011;5883;48.818;9.114;2022-12-13T08:34:48;27.53;;;15.13;;
11653;SDS011;5883;48.818;9.114;2022-12-13T08:37:15;27.50;;;14.63;;
11653;SDS011;5883;48.818;9.114;2022-12-13T08:39:41;29.20;;;16.13;;
11653;SDS011;5883;48.818;9.114;2022-12-13T08:42:10;25.37;;;15.13;;
11653;SDS011;5883;48.818;9.114;2022-12-13T08:44:37;27.03;;;14.77;;
11653;SDS011;5883;48.818;9.114;2022-12-13T08:47:05;28.80;;;14.73;;
11653;SDS011;5883;48.818;9.114;2022-12-13T08:49:31;23.27;;;13.03;;
11653;SDS011;5883;48.818;9.114;2022-12-13T08:51:58;24.77;;;14.63;;
11653;SDS011;5883;48.818;9.114;2022-12-13T08:54:24;25.33;;;14.97;;
11653;SDS011;5883;48.818;9.114;2022-12-13T08:56:51;27.40;;;15.17;;
11653;SDS011;5883;48.818;9.114;2022-12-13T08:59:18;25.43;;;14.27;;
11653;SDS011;5883;48.818;9.114;2022-12-13T09:01:44;23.50;;;14.33;;
11653;SDS011;5883;48.818;9.114;2022-12-13T09:04:12;23.53;;;13.70;;
11653;SDS011;5883;48.818;9.114;2022-12-13T09:06:40;23.17;;;13.47;;
11653;SDS011;5883;48.818;9.114;2022-12-13T09:09:06;23.00;;;12.97;;
11653;SDS011;5883;48.818;9.114;2022-12-13T09:11:33;23.90;;;15.83;;
11653;SDS011;5883;48.818;9.114;2022-12-13T09:13:59;32.30;;;15.90;;
11653;SDS011;5883;48.818;9.114;2022-12-13T09:16:26;30.93;;;17.27;;
11653;SDS011;5883;48.818;9.114;2022-12-13T09:18:54;31.37;;;17.03;;
11653;SDS011;5883;48.818;9.114;2022-12-13T09:21:22;25.50;;;16.77;;
11653;SDS011;5883;48.818;9.114;2022-12-13T09:23:49;28.13;;;16.67;;
11653;SDS011;5883;48.818;9.114;2022-12-13T09:26:15;24.80;;;14.77;;
11653;SDS011;5883;48.818;9.114;2022-12-13T09:28:42;25.03;;;14.40;;
11653;SDS011;5883;48.818;9.114;2022-12-13T09:31:09;19.30;;;12.87;;
11653;SDS011;5883;48.818;9.114;2022-12-13T09:33:36;23.80;;;12.57;;
11653;SDS011;5883;48.818;9.114;2022-12-13T09:36:03;19.40;;;12.90;;
11653;SDS011;5883;48.818;9.114;2022-12-13T09:38:31;21.70;;;12.20;;
11653;SDS011;5883;48.818;9.114;2022-12-13T09:40:59;20.53;;;11.20;;
11653;SDS011;5883;48.818;9.114;2022-12-13T09:43:29;19.57;;;11.87;;
11653;SDS011;5883;48.818;9.114;2022-12-13T09:45:56;21.17;;;11.60;;
11653;SDS011;5883;48.818;9.114;2022-12-13T09:48:24;18.80;;;12.10;;
11653;SDS011;5883;48.818;9.114;2022-12-13T09:50:50;20.73;;;12.10;;
11653;SDS011;5883;48.818;9.114;2022-12-13T09:53:17;16.80;;;11.63;;
11653;SDS011;5883;48.818;9.114;2022-12-13T09:55:46;19.50;;;12.07;;
11653;SDS011;5883;48.818;9.114;2022-12-13T09:58:15;18.93;;;11.43;;
11653;SDS011;5883;48.818;9.114;2022-12-13T10:00:42;20.73;;;11.83;;
11653;SDS011;5883;48.818;9.114;2022-12-13T10:03:11;20.27;;;11.87;;
11653;SDS011;5883;48.818;9.114;2022-12-13T10:05:40;22.73;;;12.43;;
11653;SDS011;5883;48.818;9.114;2022-12-13T10:08:11;18.23;;;10.73;;
11653;SDS011;5883;48.818;9.114;2022-12-13T10:10:38;20.00;;;11.00;;
11653;SDS011;5883;48.818;9.114;2022-12-13T10:13:08;18.63;;;11.23;;
11653;SDS011;5883;48.818;9.114;2022-12-13T10:15:36;20.40;;;11.80;;
11653;SDS011;5883;48.818;9.114;2022-12-13T10:18:04;17.83;;;12.03;;
11653;SDS011;5883;48.818;9.114;2022-12-13T10:20:31;20.77;;;12.10;;
11653;SDS011;5883;48.818;9.114;2022-12-13T10:22:58;20.03;;;12.23;;
11653;SDS011;5883;48.818;9.114;2022-12-13T10:25:42;18.90;;;11.83;;
11653;SDS011;5883;48.818;9.114;2022-12-13T10:28:11;18.20;;;11.50;;
11653;SDS011;5883;48.818;9.114;2022-12-13T10:30:40;16.67;;;10.60;;
11653;SDS011;5883;48.818;9.114;2022-12-13T10:33:17;17.03;;;10.47;;
11653;SDS011;5883;48.818;9.114;2022-12-13T10:35:44;19.10;;;11.00;;
11653;SDS011;5883;48.818;9.114;2022-12-13T10:38:26;17.53;;;10.23;;
11653;SDS011;5883;48.818;9.114;2022-12-13T10:40:54;15.90;;;10.67;;
11653;SDS011;5883;48.818;9.114;2022-12-13T10:43:22;18.00;;;10.73;;
11653;SDS011;5883;48.818;9.114;2022-12-13T10:45:55;18.17;;;10.83;;
11653;SDS011;5883;48.818;9.114;2022-12-13T10:48:22;18.20;;;10.37;;
11653;SDS011;5883;48.818;9.114;2022-12-13T10:50:57;20.37;;;11.37;;
11653;SDS011;5883;48.818;9.114;2022-12-13T10:53:26;18.37;;;11.73;;
11653;SDS011;5883;48.818;9.114;2022-12-13T10:55:54;19.87;;;11.20;;
11653;SDS011;5883;48.818;9.114;2022-12-13T10:58:22;18.27;;;11.30;;
11653;SDS011;5883;48.818;9.114;2022-12-13T11:00:59;19.53;;;11.43;;
11653;SDS011;5883;48.818;9.114;2022-12-13T11:03:33;22.63;;;11.93;;
11653;SDS011;5883;48.818;9.114;2022-12-13T11:06:03;19.07;;;11.47;;
11653;SDS011;5883;48.818;9.114;2022-12-13T11:08:30;16.17;;;10.50;;
11653;SDS011;5883;48.818;9.114;2022-12-13T11:10:56;17.40;;;10.83;;
11653;SDS011;5883;48.818;9.114;2022-12-13T11:13:26;18.07;;;11.60;;
11653;SDS011;5883;48.818;9.114;2022-12-13T11:15:56;16.23;;;10.43;;
11653;SDS011;5883;48.818;9.114;2022-12-13T11:18:23;16.63;;;10.87;;
11653;SDS011;5883;48.818;9.114;2022-12-13T11:20:52;21.77;;;11.90;;
11653;SDS011;5883;48.818;9.114;2022-12-13T11:23:21;18.97;;;10.10;;
11653;SDS011;5883;48.818;9.114;2022-12-13T11:25:53;17.27;;;11.10;;
11653;SDS011;5883;48.818;9.114;2022-12-13T11:28:25;18.87;;;11.50;;
11653;SDS011;5883;48.818;9.114;2022-12-13T11:30:57;18.93;;;11.07;;
11653;SDS011;5883;48.818;9.114;2022-12-13T11:33:29;18.13;;;12.00;;
11653;SDS011;5883;48.818;9.114;2022-12-13T11:36:01;16.63;;;10.90;;
11653;SDS011;5883;48.818;9.114;2022-12-13T11:38:33;16.20;;;10.80;;
11653;SDS011;5883;48.818;9.114;2022-12-13T11:41:01;15.27;;;10.77;;
11653;SDS011;5883;48.818;9.114;2022-12-13T11:43:32;20.10;;;10.83;;
11653;SDS011;5883;48.818;9.114;2022-12-13T11:46:03;17.77;;;10.47;;
11653;SDS011;5883;48.818;9.114;2022-12-13T11:48:33;15.80;;;9.97;;
11653;SDS011;5883;48.818;9.114;2022-12-13T11:51:03;17.70;;;10.33;;
11653;SDS011;5883;48.818;9.114;2022-12-13T11:53:32;16.17;;;10.23;;
11653;SDS011;5883;48.818;9.114;2022-12-13T11:56:02;16.40;;;10.23;;
11653;SDS011;5883;48.818;9.114;2022-12-13T11:58:31;16.37;;;10.83;;
11653;SDS011;5883;48.818;9.114;2022-12-13T12:01:02;17.10;;;9.97;;
11653;SDS011;5883;48.818;9.114;2022-12-13T12:03:31;20.43;;;9.87;;
11653;SDS011;5883;48.818;9.114;2022-12-13T12:06:00;21.23;;;11.53;;
11653;SDS011;5883;48.818;9.114;2022-12-13T12:08:32;24.07;;;11.87;;
11653;SDS011;5883;48.818;9.114;2022-12-13T12:11:02;18.97;;;10.77;;
11653;SDS011;5883;48.818;9.114;2022-12-13T12:13:33;19.33;;;10.83;;
11653;SDS011;5883;48.818;9.114;2022-12-13T12:16:07;16.80;;;10.63;;
11653;SDS011;5883;48.818;9.114;2022-12-13T12:18:35;16.40;;;11.50;;
11653;SDS011;5883;48.818;9.114;2022-12-13T12:21:04;16.77;;;10.70;;
11653;SDS011;5883;48.818;9.114;2022-12-13T12:23:37;21.83;;;13.03;;
11653;SDS011;5883;48.818;9.114;2022-12-13T12:26:08;25.40;;;12.77;;
11653;SDS011;5883;48.818;9.114;2022-12-13T12:28:39;19.03;;;11.93;;
11653;SDS011;5883;48.818;9.114;2022-12-13T12:31:11;17.03;;;10.73;;
11653;SDS011;5883;48.818;9.114;2022-12-13T12:33:42;17.57;;;10.20;;
11653;SDS011;5883;48.818;9.114;2022-12-13T12:38:59;21.90;;;10.47;;
11653;SDS011;5883;48.818;9.114;2022-12-13T12:41:31;20.77;;;11.63;;
11653;SDS011;5883;48.818;9.114;2022-12-13T12:44:03;16.40;;;10.50;;
11653;SDS011;5883;48.818;9.114;2022-12-13T12:46:35;18.70;;;11.67;;
11653;SDS011;5883;48.818;9.114;2022-12-13T12:51:49;17.73;;;10.73;;
11653;SDS011;5883;48.818;9.114;2022-12-13T12:54:23;19.00;;;10.20;;
11653;SDS011;5883;48.818;9.114;2022-12-13T12:56:54;19.07;;;10.93;;
11653;SDS011;5883;48.818;9.114;2022-12-13T12:59:24;17.87;;;10.53;;
11653;SDS011;5883;48.818;9.114;2022-12-13T13:01:57;16.47;;;10.97;;
11653;SDS011;5883;48.818;9.114;2022-12-13T13:04:26;22.10;;;10.50;;
11653;SDS011;5883;48.818;9.114;2022-12-13T13:06:54;16.80;;;10.13;;
11653;SDS011;5883;48.818;9.114;2022-12-13T13:09:23;14.97;;;9.47;;
11653;SDS011;5883;48.818;9.114;2022-12-13T13:11:49;17.53;;;10.47;;
11653;SDS011;5883;48.818;9.114;2022-12-13T13:14:26;20.53;;;10.73;;
11653;SDS011;5883;48.818;9.114;2022-12-13T13:16:52;17.20;;;10.27;;
11653;SDS011;5883;48.818;9.114;2022-12-13T13:22:13;22.03;;;10.07;;
11653;SDS011;5883;48.818;9.114;2022-12-13T13:24:56;15.00;;;9.60;;
11653;SDS011;5883;48.818;9.114;2022-12-13T13:27:26;17.23;;;9.90;;
11653;SDS011;5883;48.818;9.114;2022-12-13T13:29:53;20.07;;;10.63;;
11653;SDS011;5883;48.818;9.114;2022-12-13T13:32:29;17.23;;;10.37;;
11653;SDS011;5883;48.818;9.114;2022-12-13T13:37:46;18.03;;;9.53;;
11653;SDS011;5883;48.818;9.114;2022-12-13T13:40:26;19.10;;;11.17;;
11653;SDS011;5883;48.818;9.114;2022-12-13T13:43:12;19.67;;;10.67;;
11653;SDS011;5883;48.818;9.114;2022-12-13T13:45:51;20.07;;;10.20;;
11653;SDS011;5883;48.818;9.114;2022-12-13T13:51:19;17.03;;;9.97;;
11653;SDS011;5883;48.818;9.114;2022-12-13T13:54:00;18.20;;;9.77;;
11653;SDS011;5883;48.818;9.114;2022-12-13T13:56:33;18.53;;;10.23;;
11653;SDS011;5883;48.818;9.114;2022-12-13T13:59:21;16.93;;;9.63;;
11653;SDS011;5883;48.818;9.114;2022-12-13T14:02:14;17.47;;;10.03;;
11653;SDS011;5883;48.818;9.114;2022-12-13T14:04:45;21.43;;;9.80;;
11653;SDS011;5883;48.818;9.114;2022-12-13T14:07:28;17.73;;;10.03;;
11653;SDS011;5883;48.818;9.114;2022-12-13T14:10:10;22.37;;;10.63;;
11653;SDS011;5883;48.818;9.114;2022-12-13T14:12:53;19.30;;;10.50;;
11653;SDS011;5883;48.818;9.114;2022-12-13T14:15:36;18.67;;;10.07;;
11653;SDS011;5883;48.818;9.114;2022-12-13T14:18:27;16.87;;;9.23;;
11653;SDS011;5883;48.818;9.114;2022-12-13T14:21:07;23.77;;;9.23;;
11653;SDS011;5883;48.818;9.114;2022-12-13T14:23:39;20.17;;;10.37;;
11653;SDS011;5883;48.818;9.114;2022-12-13T14:26:20;14.00;;;8.40;;
11653;SDS011;5883;48.818;9.114;2022-12-13T14:28:49;21.00;;;8.40;;
11653;SDS011;5883;48.818;9.114;2022-12-13T14:31:17;14.23;;;8.80;;
11653;SDS011;5883;48.818;9.114;2022-12-13T14:33:45;15.53;;;9.07;;
11653;SDS011;5883;48.818;9.114;2022-12-13T14:36:13;18.63;;;9.77;;
11653;SDS011;5883;48.818;9.114;2022-12-13T14:38:40;17.50;;;8.73;;
11653;SDS011;5883;48.818;9.114;2022-12-13T14:41:12;20.53;;;10.40;;
11653;SDS011;5883;48.818;9.114;2022-12-13T14:43:41;13.13;;;8.53;;
11653;SDS011;5883;48.818;9.114;2022-12-13T14:46:09;14.07;;;8.77;;
11653;SDS011;5883;48.818;9.114;2022-12-13T14:48:42;19.40;;;9.10;;
11653;SDS011;5883;48.818;9.114;2022-12-13T14:51:16;19.60;;;8.77;;
11653;SDS011;5883;48.818;9.114;2022-12-13T14:53:47;15.00;;;9.33;;
11653;SDS011;5883;48.818;9.114;2022-12-13T14:56:17;22.63;;;9.00;;
11653;SDS011;5883;48.818;9.114;2022-12-13T14:58:52;13.73;;;8.17;;
11653;SDS011;5883;48.818;9.114;2022-12-13T15:01:23;14.17;;;8.87;;